Terminal Aerodrome Forecast
Issued by NWS Wilmington, OH

Current Version | Previous Version | Text Only | Print | Product List | Glossary Off
Versions: 1 2 3 4 5 6 7 8 9 10 11 12 13 14 15 16 17 18 19 20

000
FTUS41 KILN 200546 AAB
TAFCMH
TAF AMD
KCMH 200546Z 2006/2106 00000KT 3SM BR FEW005
      TEMPO 2006/2008 1/4SM FG VV005
     FM200800 00000KT 1/4SM FG VV004
     FM201300 00000KT 1SM BR OVC008
     FM201500 14004KT P6SM SCT015
     FM201800 13006KT P6SM SCT200
     FM210300 12005KT P6SM BKN250=

USA.gov is the U.S. government's official web portal to all federal, state and local government web resources and services.